Latest Weather Observations for Ferny Creek

IDV60901

Issued at 1:31 pm EST Saturday 23 September 2017 (issued every 10 minutes, with the page automatically refreshed every 10 minutes)

About weather observations | Map of Melbourne area stations | Latest observations for Melbourne area | Other Formats
Station Details ID: 086266 Name: FERNY CREEK Lat: -37.87 Lon: 145.35 Height: 512.9 m
Data from the previous 72 hours. | See also: Recent months at Ferny Creek
Date/Time
EST
Temp
°C
App
Temp
°C
Dew
Point
°C
Rel
Hum
%
Delta-T
°C
Wind Press
QNH
hPa
Press
MSL
hPa
Rain since
9am
mm
Dir  Spd
km/h
Gust
km/h
Spd
kts
Gust
kts
23/01:30pm 26.0 21.6 2.7 22 11.7 N 15 32 8 17 992.4 992.4 0.0
23/01:00pm 24.9 21.3 3.0 24 11.0 NNW 11 24 6 13 993.3 993.3 0.0
23/12:30pm 25.0 21.0 3.0 24 11.0 NNE 13 35 7 19 993.4 993.4 0.0
23/12:00pm 24.9 20.2 1.1 21 11.6 N 15 30 8 16 994.3 994.3 0.0
23/11:30am 24.3 18.8 0.6 21 11.3 NNE 19 57 10 31 994.5 994.5 0.0
23/11:00am 24.1 18.8 1.7 23 10.9 NNE 19 44 10 24 995.7 995.8 0.0
23/10:30am 23.4 19.0 0.5 22 10.8 N 13 32 7 17 996.7 996.7 0.0
23/10:00am 22.6 18.2 0.4 23 10.5 N 13 33 7 18 997.7 997.8 0.0
23/09:30am 22.9 18.7 -1.2 20 10.9 N 11 24 6 13 998.3 998.3 0.0
23/09:00am 22.3 17.5 -2.4 19 11.0 N 13 32 7 17 998.7 998.8 0.0
23/08:30am 21.4 16.2 -2.5 20 10.5 NNE 15 30 8 16 999.1 999.2 0.0
23/08:00am 21.1 15.6 -2.0 21 10.2 NNE 17 33 9 18 999.5 999.6 0.0
23/07:30am 20.6 15.4 -2.5 21 10.0 NNE 15 33 8 18 999.9 1000.0 0.0
23/07:00am 20.0 14.5 -2.3 22 9.7 NNE 17 43 9 23 1000.4 1000.5 0.0
23/06:30am 19.7 15.7 -2.0 23 9.4 NNE 9 20 5 11 1000.4 1000.5 0.0
23/06:00am 19.0 15.0 -2.0 24 9.1 NNE 9 26 5 14 1000.5 1000.6 0.0
23/05:30am 19.0 14.3 -2.0 24 9.1 NE 13 24 7 13 1000.5 1000.6 0.0
23/05:00am 19.6 15.2 -2.1 23 9.5 NE 11 19 6 10 1001.2 1001.3 0.0
23/04:30am 19.3 15.7 -2.3 23 9.3 NNE 7 19 4 10 1001.8 1001.9 0.0
23/04:00am 19.3 16.0 -1.2 25 9.1 NE 6 11 3 6 1002.2 1002.4 0.0
23/03:30am 19.8 15.8 -1.9 23 9.5 NNE 9 20 5 11 1002.6 1002.7 0.0
23/03:00am 19.4 15.9 -1.7 24 9.3 NNE 7 22 4 12 1003.1 1003.2 0.0
23/02:30am 19.0 15.7 -0.9 26 8.8 NE 6 11 3 6 1003.9 1004.1 0.0
23/02:00am 19.5 15.7 -0.5 26 9.0 NNE 9 17 5 9 1004.2 1004.4 0.0
23/01:30am 19.9 16.1 -0.7 25 9.2 NNE 9 19 5 10 1004.6 1004.7 0.0
23/01:00am 19.7 15.9 -0.9 25 9.2 NNE 9 19 5 10 1005.0 1005.1 0.0
23/12:30am 19.4 15.7 -0.1 27 8.8 NNE 9 24 5 13 1005.2 1005.3 0.0
23/12:00am 19.9 16.3 0.4 27 9.0 NNE 9 24 5 13 1005.6 1005.8 0.0
 
Date/Time
EST
Temp
°C
App
Temp
°C
Dew
Point
°C
Rel
Hum
%
Delta-T
°C
Wind Press
QNH
hPa
Press
MSL
hPa
Rain since
9am
mm
Dir  Spd
km/h
Gust
km/h
Spd
kts
Gust
kts
22/11:30pm 18.6 15.1 1.2 31 8.0 NNE 9 19 5 10 1005.8 1006.0 0.0
22/11:00pm 18.3 15.2 1.3 32 7.8 NE 7 15 4 8 1006.0 1006.2 0.0
22/10:30pm 18.0 15.1 1.5 33 7.6 NNE 6 13 3 7 1006.6 1006.7 0.0
22/10:00pm 17.7 14.9 2.1 35 7.3 NNE 6 9 3 5 1006.8 1006.9 0.0
22/09:30pm 17.1 15.0 1.9 36 7.0 NNE 2 6 1 3 1007.1 1007.3 0.0
22/09:00pm 17.4 15.3 1.8 35 7.2 NE 2 6 1 3 1007.4 1007.6 0.0
22/08:30pm 18.0 15.7 2.7 36 7.2 N 4 7 2 4 1007.5 1007.7 0.0
22/08:00pm 18.2 15.6 3.3 37 7.1 N 6 13 3 7 1007.5 1007.7 0.0
22/07:30pm 18.0 15.5 3.9 39 6.8 N 6 15 3 8 1007.5 1007.7 0.0
22/07:00pm 17.8 15.3 4.7 42 6.4 NNE 7 17 4 9 1007.3 1007.5 0.0
22/06:30pm 17.8 15.5 4.7 42 6.4 N 6 11 3 6 1007.4 1007.6 0.0
22/06:00pm 18.1 15.8 4.7 41 6.6 N 6 17 3 9 1007.3 1007.5 0.0
22/05:30pm 18.7 16.7 4.5 39 7.0 N 4 13 2 7 1007.5 1007.7 0.0
22/05:00pm 18.9 17.3 6.4 44 6.4 N 4 11 2 6 1007.5 1007.7 0.0
22/04:30pm 19.4 17.3 5.8 41 6.9 NNE 6 9 3 5 1007.3 1007.5 0.0
22/04:00pm 19.0 17.4 6.2 43 6.5 N 4 9 2 5 1007.4 1007.6 0.0
22/03:30pm 19.9 17.6 5.5 39 7.3 N 7 20 4 11 1007.3 1007.5 0.0
22/03:00pm 20.8 18.7 5.6 37 7.8 N 6 13 3 7 1007.4 1007.6 0.0
22/02:30pm 21.1 18.1 1.9 28 9.1 NNW 7 19 4 10 1007.5 1007.7 0.0
22/02:00pm 21.1 18.7 7.0 40 7.4 NNW 9 17 5 9 1007.6 1007.8 0.0
22/01:30pm 19.8 17.1 5.8 40 7.1 N 9 17 5 9 1008.0 1008.2 0.0
22/01:00pm 18.4 16.3 5.6 43 6.4 N 6 13 3 7 1008.1 1008.3 0.0
22/12:30pm 18.5 15.9 6.0 44 6.3 NNW 9 17 5 9 1008.4 1008.6 0.0
22/12:00pm 17.9 15.5 5.2 43 6.3 NNW 7 17 4 9 1008.9 1009.1 0.0
22/11:30am 17.9 15.7 6.1 46 6.0 NNW 7 19 4 10 1009.3 1009.5 0.0
22/11:00am 18.0 15.9 5.6 44 6.2 NNW 6 11 3 6 1009.6 1009.8 0.0
22/10:30am 17.3 15.4 6.8 50 5.4 NNW 6 17 3 9 1009.7 1009.9 0.0
22/10:00am 15.7 13.8 5.0 49 5.2 N 4 7 2 4 1009.7 1009.9 0.0
22/09:30am 15.5 13.8 5.7 52 4.8 NNW 4 9 2 5 1010.0 1010.2 0.0
22/09:00am 14.7 12.8 4.7 51 4.8 N 4 9 2 5 1009.9 1010.1 0.0
22/08:30am 12.9 11.6 7.6 70 2.7 NNE 4 7 2 4 1009.8 1010.0 0.0
22/08:00am 11.1 10.7 8.3 83 1.4 CALM 0 0 0 0 1009.8 1010.0 0.0
22/07:30am 9.9 9.0 7.8 87 1.0 NE 2 4 1 2 1009.8 1010.0 0.0
22/07:00am 8.7 8.3 8.3 97 0.2 CALM 0 0 0 0 1009.6 1009.8 0.0
22/06:30am 7.7 7.0 7.1 96 0.3 CALM 0 0 0 0 1009.7 1009.9 0.0
22/06:00am 7.7 6.6 7.0 95 0.3 NNE 2 6 1 3 1009.9 1010.1 0.0
22/05:30am 8.3 7.8 7.7 96 0.3 CALM 0 0 0 0 1009.6 1009.8 0.0
22/05:00am 8.4 7.5 7.6 95 0.4 NE 2 6 1 3 1009.5 1009.7 0.0
22/04:30am 8.6 8.1 7.7 94 0.4 CALM 0 0 0 0 1009.5 1009.7 0.0
22/04:00am 8.7 8.2 7.8 94 0.4 CALM 0 0 0 0 1009.7 1009.9 0.0
22/03:30am 8.9 8.4 8.0 94 0.4 CALM 0 0 0 0 1009.9 1010.1 0.0
22/03:00am 9.0 8.1 7.9 93 0.5 ENE 2 4 1 2 1010.0 1010.2 0.0
22/02:30am 9.1 8.6 7.9 92 0.6 CALM 0 0 0 0 1010.5 1010.8 0.0
22/02:00am 9.2 8.8 8.1 93 0.5 CALM 0 0 0 0 1011.1 1011.3 0.0
22/01:30am 9.2 8.8 8.1 93 0.5 CALM 0 0 0 0 1011.3 1011.5 0.0
22/01:00am 9.2 8.8 8.3 94 0.4 CALM 0 0 0 0 1011.8 1012.0 0.0
22/12:30am 9.3 9.0 8.5 95 0.4 CALM 0 0 0 0 1012.0 1012.3 0.0
22/12:00am 9.3 8.6 8.7 96 0.3 E 2 4 1 2 1012.1 1012.4 0.0
 
Date/Time
EST
Temp
°C
App
Temp
°C
Dew
Point
°C
Rel
Hum
%
Delta-T
°C
Wind Press
QNH
hPa
Press
MSL
hPa
Rain since
9am
mm
Dir  Spd
km/h
Gust
km/h
Spd
kts
Gust
kts
21/11:30pm 9.4 8.8 8.8 96 0.3 S 2 6 1 3 1012.1 1012.4 0.0
21/11:00pm 9.5 8.5 8.9 96 0.3 SSE 4 9 2 5 1012.1 1012.4 0.0
21/10:30pm 9.9 9.0 9.3 96 0.3 ESE 4 13 2 7 1012.1 1012.4 0.0
21/10:00pm 10.0 9.5 9.2 95 0.4 SSE 2 7 1 4 1012.0 1012.3 0.0
21/09:30pm 10.2 9.3 9.3 94 0.5 SSE 4 11 2 6 1011.7 1011.9 0.0
21/09:00pm 10.6 9.2 8.7 88 1.0 SSW 6 9 3 5 1011.6 1011.8 0.0
21/08:30pm 12.9 11.8 5.3 60 3.6 CALM 0 0 0 0 1011.0 1011.2 0.0
21/08:00pm 14.0 12.1 4.9 54 4.4 WSW 4 9 2 5 1010.8 1011.0 0.0
21/07:30pm 14.6 12.3 4.9 52 4.7 SW 6 15 3 8 1010.4 1010.7 0.0
21/07:00pm 15.9 13.6 4.6 47 5.5 N 6 17 3 9 1009.8 1010.0 0.0
21/06:30pm 15.6 13.2 5.2 50 5.1 N 7 13 4 7 1009.8 1010.0 0.0
21/06:00pm 15.9 13.5 5.2 49 5.2 N 7 13 4 7 1009.6 1009.8 0.0
21/05:30pm 16.6 13.8 5.3 47 5.6 N 9 20 5 11 1009.2 1009.4 0.0
21/05:00pm 16.7 13.9 5.3 47 5.6 N 9 19 5 10 1009.1 1009.3 0.0
21/04:30pm 17.1 14.3 5.1 45 5.9 N 9 22 5 12 1008.8 1009.0 0.0
21/04:00pm 17.2 14.2 4.2 42 6.3 N 9 24 5 13 1008.8 1009.0 0.0
21/03:30pm 17.5 15.0 4.8 43 6.2 NNW 7 17 4 9 1008.8 1009.0 0.0
21/03:00pm 16.9 13.7 4.9 45 5.9 N 11 24 6 13 1008.4 1008.6 0.0
21/02:30pm 16.9 13.6 4.3 43 6.1 N 11 24 6 13 1008.8 1009.0 0.0
21/02:00pm 17.5 14.4 3.4 39 6.7 N 9 19 5 10 1009.1 1009.3 0.0
21/01:30pm 16.7 12.8 3.4 41 6.3 N 13 26 7 14 1009.3 1009.5 0.0
21/01:00pm 16.3 12.5 3.7 43 6.0 NNE 13 28 7 15 1009.5 1009.7 0.0
21/12:30pm 15.6 11.4 3.7 45 5.6 N 15 33 8 18 1010.2 1010.4 0.0
21/12:00pm 14.5 9.9 3.6 48 5.1 NNE 17 43 9 23 1011.0 1011.2 0.0
21/11:30am 13.2 8.9 3.3 51 4.6 N 15 32 8 17 1011.2 1011.4 0.0
21/11:00am 13.0 8.9 2.0 47 4.9 N 13 24 7 13 1011.7 1011.9 0.0
21/10:30am 12.9 8.3 1.3 45 5.1 N 15 35 8 19 1011.5 1011.7 0.0
21/10:00am 12.1 6.7 1.1 47 4.8 N 19 39 10 21 1011.6 1011.8 0.0
21/09:30am 11.6 6.2 1.3 49 4.5 NNE 19 41 10 22 1012.3 1012.6 0.0
21/09:00am 11.4 6.8 1.4 50 4.3 N 15 39 8 21 1012.8 1013.0 0.0
21/08:30am 11.3 7.4 1.3 50 4.3 N 11 35 6 19 1013.1 1013.3 0.0
21/08:00am 11.5 7.3 1.5 50 4.4 N 13 33 7 18 1013.3 1013.5 0.0
21/07:30am 11.6 7.3 1.3 49 4.5 N 13 28 7 15 1013.2 1013.4 0.0
21/07:00am 11.8 7.6 1.4 49 4.5 N 13 30 7 16 1012.9 1013.1 0.0
21/06:30am 11.7 7.5 1.4 49 4.5 N 13 39 7 21 1012.7 1012.9 0.0
21/06:00am 11.8 7.1 1.2 48 4.6 N 15 30 8 16 1013.2 1013.4 0.0
21/05:30am 12.0 7.7 1.1 47 4.7 NNE 13 26 7 14 1012.9 1013.1 0.0
21/05:00am 11.8 7.9 1.2 48 4.6 N 11 30 6 16 1012.7 1012.9 0.0
21/04:30am 11.7 7.5 1.6 50 4.4 N 13 32 7 17 1012.8 1013.0 0.0
21/04:00am 11.4 7.2 1.6 51 4.3 N 13 24 7 13 1012.8 1013.0 0.0
21/03:30am 11.8 7.2 1.7 50 4.4 NNE 15 35 8 19 1013.0 1013.2 0.0
21/03:00am 11.6 7.9 2.1 52 4.2 N 11 22 6 12 1013.3 1013.5 0.0
21/02:30am 11.4 7.7 2.2 53 4.1 N 11 28 6 15 1013.4 1013.6 0.0
21/02:00am 11.2 7.9 2.5 55 3.9 N 9 20 5 11 1013.8 1014.1 0.0
21/01:30am 10.9 7.3 2.7 57 3.6 N 11 24 6 13 1014.1 1014.4 0.0
21/01:00am 10.9 7.7 3.0 58 3.5 N 9 17 5 9 1014.4 1014.7 0.0
21/12:30am 10.8 7.6 3.1 59 3.5 N 9 22 5 12 1014.9 1015.1 0.0
21/12:00am 11.0 7.8 3.1 58 3.5 N 9 20 5 11 1015.1 1015.3 0.0
 
Date/Time
EST
Temp
°C
App
Temp
°C
Dew
Point
°C
Rel
Hum
%
Delta-T
°C
Wind Press
QNH
hPa
Press
MSL
hPa
Rain since
9am
mm
Dir  Spd
km/h
Gust
km/h
Spd
kts
Gust
kts
20/11:30pm 10.6 7.8 3.2 60 3.3 N 7 13 4 7 1015.3 1015.6 0.0
20/11:00pm 10.5 7.8 3.5 62 3.2 NNW 7 22 4 12 1015.9 1016.2 0.0
20/10:30pm 10.9 8.3 3.2 59 3.5 N 6 17 3 9 1015.8 1016.1 0.0
20/10:00pm 11.0 7.1 3.3 59 3.5 N 13 33 7 18 1014.9 1015.1 0.0
20/09:30pm 10.9 7.0 3.5 60 3.4 N 13 28 7 15 1015.1 1015.3 0.0
20/09:00pm 11.0 7.6 3.8 61 3.3 N 11 28 6 15 1015.9 1016.2 0.0
20/08:30pm 10.9 7.5 3.9 62 3.2 N 11 26 6 14 1016.2 1016.5 0.0
20/08:00pm 11.1 8.0 3.6 60 3.4 N 9 20 5 11 1016.3 1016.6 0.0
20/07:30pm 11.2 8.1 3.5 59 3.5 N 9 22 5 12 1015.9 1016.2 0.0
20/07:00pm 11.0 8.3 3.5 60 3.4 NNW 7 15 4 8 1016.2 1016.5 0.0
20/06:30pm 11.5 8.8 3.8 59 3.5 NNW 7 13 4 7 1016.0 1016.3 0.0
20/06:00pm 11.6 8.9 3.9 59 3.5 N 7 15 4 8 1015.7 1016.0 0.0
20/05:30pm 11.8 9.3 4.5 61 3.4 N 7 11 4 6 1015.5 1015.8 0.0
20/05:00pm 12.0 9.5 5.0 62 3.3 N 7 13 4 7 1015.6 1015.9 0.0
20/04:30pm 12.6 9.8 5.1 60 3.6 N 9 20 5 11 1015.5 1015.8 0.0
20/04:00pm 13.1 10.3 5.3 59 3.7 N 9 19 5 10 1015.9 1016.2 0.0
20/03:30pm 13.3 10.8 5.0 57 4.0 NNW 7 17 4 9 1016.0 1016.3 0.0
20/03:00pm 13.4 11.0 5.3 58 3.9 N 7 13 4 7 1016.4 1016.7 0.0
20/02:30pm 13.6 11.2 5.3 57 4.0 NNW 7 17 4 9 1016.6 1016.9 0.0
20/02:00pm 13.4 10.9 4.8 56 4.1 NNW 7 17 4 9 1016.9 1017.1 0.0

Latest Capital City Observations: Canberra | Sydney | Melbourne | Brisbane | Adelaide | Perth | Hobart | Darwin

Other Formats:

Comma delimited format used in spreadsheet applications
http://www.bom.gov.au/fwo/IDV60901/IDV60901.94872.axf

JavaScript Object Notation format (JSON) in row-major order
http://www.bom.gov.au/fwo/IDV60901/IDV60901.94872.json